createdAt,value
2024-01-19T00:02:03.972Z,99.50
2024-01-19T00:04:31.967Z,98.77
2024-01-19T00:07:00.098Z,98.40
2024-01-19T00:09:28.504Z,98.97
2024-01-19T00:11:56.561Z,98.95
2024-01-19T00:14:24.678Z,99.04
2024-01-19T00:16:52.833Z,98.84
2024-01-19T00:19:20.844Z,98.43
2024-01-19T00:21:48.838Z,97.88
2024-01-19T00:24:17.029Z,98.38
2024-01-19T00:26:48.141Z,100.00
2024-01-19T00:29:16.529Z,99.34
2024-01-19T00:31:47.134Z,99.63
2024-01-19T00:34:18.161Z,100.00
2024-01-19T00:36:46.201Z,99.80
2024-01-19T00:39:16.106Z,98.80
2024-01-19T00:41:44.234Z,98.91
2024-01-19T00:44:12.271Z,98.20
2024-01-19T00:46:40.390Z,98.25
2024-01-19T00:49:08.335Z,98.16
2024-01-19T00:51:36.550Z,96.99
2024-01-19T00:54:05.357Z,96.78
2024-01-19T00:56:33.594Z,97.63
2024-01-19T00:59:01.815Z,97.55
2024-01-19T01:01:29.865Z,97.20
2024-01-19T01:03:59.859Z,95.99
2024-01-19T01:06:30.349Z,96.94
2024-01-19T01:08:59.909Z,96.85
2024-01-19T01:11:29.036Z,97.27
2024-01-19T01:13:57.201Z,96.68
2024-01-19T01:16:27.794Z,96.89
2024-01-19T01:18:56.200Z,97.70
2024-01-19T01:21:24.289Z,99.67
2024-01-19T01:23:52.492Z,99.58
2024-01-19T01:26:20.735Z,98.95
2024-01-19T01:28:49.072Z,99.36
2024-01-19T01:31:17.042Z,99.12
2024-01-19T01:33:45.464Z,99.51
2024-01-19T01:36:13.618Z,98.86
2024-01-19T01:38:41.710Z,100.00
2024-01-19T01:41:09.939Z,100.00
2024-01-19T01:43:37.999Z,99.53
2024-01-19T01:46:06.157Z,100.00
2024-01-19T01:48:34.441Z,100.00
2024-01-19T01:51:03.044Z,100.00
2024-01-19T01:53:31.437Z,100.00
2024-01-19T01:56:00.066Z,100.00
2024-01-19T01:58:28.069Z,100.00
2024-01-19T02:00:56.228Z,100.00
2024-01-19T02:03:24.500Z,100.00
2024-01-19T02:05:52.766Z,100.00
2024-01-19T02:08:21.121Z,100.00
2024-01-19T02:10:49.263Z,100.00
2024-01-19T02:13:18.265Z,100.00
2024-01-19T02:15:46.331Z,100.00
2024-01-19T02:18:15.387Z,100.00
2024-01-19T02:20:43.797Z,100.00
2024-01-19T02:23:15.328Z,100.00
2024-01-19T02:25:43.563Z,100.00
2024-01-19T02:28:12.151Z,100.00
2024-01-19T02:30:41.882Z,100.00
2024-01-19T02:33:11.201Z,100.00
2024-01-19T02:35:39.402Z,100.00
2024-01-19T02:38:07.374Z,100.00
2024-01-19T02:40:36.069Z,100.00
2024-01-19T02:43:04.154Z,100.00
2024-01-19T02:45:32.200Z,100.00
2024-01-19T02:48:00.283Z,100.00
2024-01-19T02:50:28.815Z,100.00
2024-01-19T02:52:56.837Z,100.00
2024-01-19T02:55:24.889Z,100.00
2024-01-19T02:57:52.892Z,100.00
2024-01-19T03:02:34.519Z,100.00
2024-01-19T03:05:03.062Z,100.00
2024-01-19T03:07:31.477Z,100.00
2024-01-19T03:09:59.500Z,100.00
2024-01-19T03:12:27.618Z,100.00
2024-01-19T03:14:55.698Z,100.00
2024-01-19T03:17:23.869Z,100.00
2024-01-19T03:19:51.926Z,100.00
2024-01-19T03:22:20.034Z,100.00
2024-01-19T03:24:47.992Z,100.00
2024-01-19T03:27:16.111Z,100.00
2024-01-19T03:29:45.606Z,100.00
2024-01-19T03:32:13.581Z,100.00
2024-01-19T03:34:42.445Z,100.00
2024-01-19T03:37:10.527Z,100.00
2024-01-19T03:39:38.710Z,100.00
2024-01-19T03:42:07.000Z,100.00
2024-01-19T03:44:35.262Z,100.00
2024-01-19T03:47:03.712Z,100.00
2024-01-19T03:49:31.674Z,100.00
2024-01-19T03:52:00.912Z,100.00
2024-01-19T03:54:29.174Z,100.00
2024-01-19T03:56:59.680Z,100.00
2024-01-19T03:59:28.559Z,100.00
2024-01-19T04:01:57.237Z,100.00
2024-01-19T04:04:26.561Z,100.00
2024-01-19T04:06:55.130Z,100.00
2024-01-19T04:09:23.443Z,100.00
2024-01-19T04:11:51.868Z,100.00
2024-01-19T04:14:20.615Z,100.00
2024-01-19T04:16:48.770Z,100.00
2024-01-19T04:19:17.029Z,100.00
2024-01-19T04:21:45.256Z,99.93
2024-01-19T04:24:13.460Z,100.00
2024-01-19T04:26:41.537Z,100.00
2024-01-19T04:29:11.359Z,99.16
2024-01-19T04:31:39.562Z,98.40
2024-01-19T04:34:08.097Z,97.79
2024-01-19T04:36:36.148Z,97.07
2024-01-19T04:39:04.932Z,99.08
2024-01-19T04:41:34.475Z,100.00
2024-01-19T04:44:02.636Z,100.00
2024-01-19T04:46:30.818Z,99.27
2024-01-19T04:48:58.853Z,100.00
2024-01-19T04:51:27.157Z,100.00
2024-01-19T04:53:55.297Z,100.00
2024-01-19T04:56:23.595Z,100.00
2024-01-19T04:58:51.676Z,100.00
2024-01-19T05:01:19.746Z,100.00
2024-01-19T05:03:47.762Z,100.00
2024-01-19T05:06:15.980Z,100.00
2024-01-19T05:08:44.069Z,100.00
2024-01-19T05:11:15.860Z,100.00
2024-01-19T05:13:44.749Z,100.00
2024-01-19T05:16:12.754Z,100.00
2024-01-19T05:18:42.124Z,100.00
2024-01-19T05:21:10.552Z,100.00
2024-01-19T05:23:38.731Z,100.00
2024-01-19T05:26:06.991Z,100.00
2024-01-19T05:28:37.859Z,100.00
2024-01-19T05:31:06.072Z,100.00
2024-01-19T05:33:38.699Z,100.00
2024-01-19T05:36:08.612Z,100.00
2024-01-19T05:38:36.697Z,100.00
2024-01-19T05:41:04.925Z,100.00
2024-01-19T05:43:34.008Z,100.00
2024-01-19T05:46:02.183Z,100.00
2024-01-19T05:48:30.392Z,100.00
2024-01-19T05:50:58.690Z,100.00
2024-01-19T05:53:26.870Z,100.00
2024-01-19T05:55:54.965Z,100.00
2024-01-19T05:58:23.299Z,100.00
2024-01-19T06:00:56.080Z,100.00
2024-01-19T06:03:24.211Z,100.00
2024-01-19T06:05:53.695Z,100.00
2024-01-19T06:08:22.075Z,100.00
2024-01-19T06:10:50.069Z,100.00
2024-01-19T06:13:18.329Z,100.00
2024-01-19T06:15:46.304Z,100.00
2024-01-19T06:18:14.497Z,100.00
2024-01-19T06:20:43.557Z,100.00
2024-01-19T06:23:13.805Z,100.00
2024-01-19T06:25:42.474Z,100.00
2024-01-19T06:28:12.352Z,100.00
2024-01-19T06:30:40.705Z,100.00
2024-01-19T06:33:08.894Z,100.00
2024-01-19T06:35:37.470Z,100.00
2024-01-19T06:38:08.731Z,100.00
2024-01-19T06:40:36.821Z,100.00
2024-01-19T06:43:04.863Z,100.00
2024-01-19T06:45:32.925Z,100.00
2024-01-19T06:48:01.139Z,100.00
2024-01-19T06:50:29.449Z,100.00
2024-01-19T06:53:03.305Z,100.00
2024-01-19T06:55:31.277Z,100.00
2024-01-19T06:57:59.369Z,100.00
2024-01-19T07:00:27.579Z,100.00
2024-01-19T07:02:56.281Z,100.00
2024-01-19T07:05:24.540Z,100.00
2024-01-19T07:07:52.761Z,99.76
2024-01-19T07:10:21.831Z,97.39
2024-01-19T07:12:49.935Z,98.00
2024-01-19T07:15:18.136Z,97.27
2024-01-19T07:17:46.128Z,97.26
2024-01-19T07:20:14.326Z,94.75
2024-01-19T07:22:42.426Z,93.60
2024-01-19T07:25:11.277Z,93.91
2024-01-19T07:27:39.238Z,96.39
2024-01-19T07:30:07.664Z,94.18
2024-01-19T07:32:50.766Z,93.30
2024-01-19T07:35:24.122Z,95.37
2024-01-19T07:37:52.176Z,95.57
2024-01-19T07:40:20.283Z,92.32
2024-01-19T07:42:48.249Z,89.75
2024-01-19T07:45:16.616Z,88.65
2024-01-19T07:47:44.733Z,86.94
2024-01-19T07:50:13.345Z,86.92
2024-01-19T07:52:41.660Z,88.17
2024-01-19T07:55:10.569Z,83.16
2024-01-19T07:57:38.666Z,82.13
2024-01-19T08:00:07.722Z,82.64
2024-01-19T08:02:36.178Z,80.26
2024-01-19T08:05:04.512Z,79.03
2024-01-19T08:07:32.612Z,78.82
2024-01-19T08:10:00.875Z,80.28
2024-01-19T08:12:29.399Z,78.80
2024-01-19T08:14:59.434Z,77.23
2024-01-19T08:17:27.761Z,76.97
2024-01-19T08:19:56.133Z,76.53
2024-01-19T08:22:24.540Z,76.75
2024-01-19T08:24:52.630Z,76.47
2024-01-19T08:27:20.682Z,76.20
2024-01-19T08:29:48.914Z,75.78
2024-01-19T08:32:17.123Z,74.52
2024-01-19T08:34:45.271Z,74.25
2024-01-19T08:37:13.384Z,74.40
2024-01-19T08:39:41.574Z,72.69
2024-01-19T08:42:09.797Z,70.95
2024-01-19T08:44:37.723Z,69.04
2024-01-19T08:47:05.953Z,67.91
2024-01-19T08:49:33.963Z,66.92
2024-01-19T08:52:02.174Z,66.10
2024-01-19T08:54:30.202Z,67.65
2024-01-19T08:56:59.397Z,68.30
2024-01-19T08:59:28.011Z,64.88
2024-01-19T09:01:57.755Z,67.81
2024-01-19T09:04:26.158Z,67.96
2024-01-19T09:06:59.246Z,67.47
2024-01-19T09:09:28.131Z,68.77
2024-01-19T09:11:58.229Z,67.69
2024-01-19T09:14:28.186Z,67.23
2024-01-19T09:16:56.409Z,65.90
2024-01-19T09:19:24.451Z,61.57
2024-01-19T09:21:52.537Z,59.43
2024-01-19T09:24:21.603Z,61.81
2024-01-19T09:26:49.847Z,61.66
2024-01-19T09:29:17.935Z,62.95
2024-01-19T09:31:47.965Z,61.71
2024-01-19T09:34:16.796Z,62.90
2024-01-19T09:36:44.736Z,64.25
2024-01-19T09:39:12.764Z,63.44
2024-01-19T09:41:47.780Z,64.60
2024-01-19T09:44:19.465Z,65.28
2024-01-19T09:46:53.302Z,65.80
2024-01-19T09:49:45.326Z,65.71
2024-01-19T09:52:32.056Z,67.98
2024-01-19T09:55:00.988Z,67.96
2024-01-19T09:57:32.363Z,66.87
2024-01-19T10:00:00.679Z,67.82
2024-01-19T10:02:29.781Z,67.12
2024-01-19T10:05:00.495Z,68.34
2024-01-19T10:07:30.189Z,67.67
2024-01-19T10:09:58.546Z,66.70
2024-01-19T10:12:27.829Z,68.55
2024-01-19T10:14:56.104Z,68.38
2024-01-19T10:17:24.590Z,68.39
2024-01-19T10:19:53.591Z,69.44
2024-01-19T10:22:28.453Z,67.24
2024-01-19T10:25:16.430Z,67.18
2024-01-19T10:27:50.226Z,67.23
2024-01-19T10:30:21.308Z,67.02
2024-01-19T10:32:51.715Z,66.74
2024-01-19T10:35:22.295Z,66.94
2024-01-19T10:37:51.511Z,65.59
2024-01-19T10:40:24.500Z,64.87
2024-01-19T10:42:58.272Z,64.95
2024-01-19T10:45:33.624Z,60.25
2024-01-19T10:48:04.939Z,54.45
2024-01-19T10:50:33.457Z,50.15
2024-01-19T10:53:02.680Z,43.32
2024-01-19T10:55:32.552Z,42.12
2024-01-19T10:58:07.738Z,38.18
2024-01-19T11:00:40.047Z,37.38
2024-01-19T11:03:08.317Z,37.16
2024-01-19T11:05:36.438Z,39.61
2024-01-19T11:08:05.386Z,43.49
2024-01-19T11:10:33.976Z,44.64
2024-01-19T11:13:03.618Z,42.92
2024-01-19T11:15:47.646Z,40.88
2024-01-19T11:18:16.720Z,37.55
2024-01-19T11:20:46.188Z,34.26
2024-01-19T11:23:15.914Z,35.65
2024-01-19T11:26:22.129Z,33.74
2024-01-19T11:29:16.780Z,33.70
2024-01-19T11:31:49.795Z,32.19
2024-01-19T11:34:52.663Z,31.09
2024-01-19T11:37:46.953Z,31.39
2024-01-19T11:40:26.944Z,29.81
2024-01-19T11:42:55.017Z,29.54
2024-01-19T11:45:44.325Z,28.87
2024-01-19T11:48:42.983Z,28.54
2024-01-19T11:51:33.907Z,28.73
2024-01-19T11:54:04.674Z,30.31
2024-01-19T11:56:33.382Z,30.41
2024-01-19T11:59:01.504Z,31.25
2024-01-19T12:01:29.522Z,32.50
2024-01-19T12:03:57.733Z,34.93
2024-01-19T12:06:26.108Z,36.11
2024-01-19T12:09:08.792Z,39.48
2024-01-19T12:11:37.388Z,44.03
2024-01-19T12:14:11.060Z,44.63
2024-01-19T12:16:39.924Z,47.02
2024-01-19T12:19:07.950Z,49.20
2024-01-19T12:21:36.090Z,49.27
2024-01-19T12:24:04.690Z,48.40
2024-01-19T12:26:32.749Z,47.88
2024-01-19T12:29:00.881Z,47.26
2024-01-19T12:31:38.499Z,49.77
2024-01-19T12:34:17.218Z,48.93
2024-01-19T12:36:45.572Z,50.76
2024-01-19T12:39:15.809Z,50.44
2024-01-19T12:41:44.715Z,51.26
2024-01-19T12:44:15.077Z,50.17
2024-01-19T12:46:51.380Z,51.67
2024-01-19T12:49:19.864Z,52.00
2024-01-19T12:51:48.077Z,52.05
2024-01-19T12:54:25.077Z,52.50
2024-01-19T12:56:53.233Z,52.42
2024-01-19T12:59:23.639Z,54.98
2024-01-19T13:01:52.718Z,53.25
2024-01-19T13:04:21.364Z,51.63
2024-01-19T13:06:51.176Z,55.09
2024-01-19T13:09:19.829Z,53.49
2024-01-19T13:11:48.043Z,53.29
2024-01-19T13:14:16.344Z,53.04
2024-01-19T13:16:58.235Z,53.21
2024-01-19T13:19:26.406Z,54.72
2024-01-19T13:21:57.019Z,54.47
2024-01-19T13:24:27.148Z,55.36
2024-01-19T13:27:04.522Z,56.20
2024-01-19T13:29:33.086Z,55.46
2024-01-19T13:32:01.753Z,55.11
2024-01-19T13:34:30.372Z,54.75
2024-01-19T13:36:59.076Z,54.49
2024-01-19T13:39:28.189Z,56.31
2024-01-19T13:41:57.125Z,56.06
2024-01-19T13:44:26.094Z,55.80
2024-01-19T13:46:54.586Z,54.60
2024-01-19T13:49:23.163Z,56.05
2024-01-19T13:51:51.529Z,55.57
2024-01-19T13:54:19.890Z,57.25
2024-01-19T13:56:47.929Z,55.61
2024-01-19T14:02:10.216Z,56.37
2024-01-19T14:04:42.102Z,56.13
2024-01-19T14:07:11.441Z,55.69
2024-01-19T14:09:39.795Z,55.53
2024-01-19T14:12:09.250Z,56.98
2024-01-19T14:14:38.927Z,56.82
2024-01-19T14:17:07.491Z,55.82
2024-01-19T14:19:36.461Z,56.31
2024-01-19T14:22:05.286Z,55.53
2024-01-19T14:24:34.144Z,56.38
2024-01-19T14:27:03.737Z,56.20
2024-01-19T14:29:32.954Z,56.50
2024-01-19T14:32:02.374Z,58.22
2024-01-19T14:34:36.611Z,56.25
2024-01-19T14:37:12.713Z,57.59
2024-01-19T14:39:41.807Z,55.53
2024-01-19T14:42:10.580Z,56.79
2024-01-19T14:44:39.338Z,56.57
2024-01-19T14:47:09.110Z,57.03
2024-01-19T14:49:39.811Z,56.57
2024-01-19T14:52:09.199Z,56.84
2024-01-19T14:54:38.791Z,56.71
2024-01-19T14:57:07.606Z,57.61
2024-01-19T14:59:36.290Z,58.18
2024-01-19T15:02:05.254Z,57.16
2024-01-19T15:04:33.906Z,57.25
2024-01-19T15:07:02.318Z,57.85
2024-01-19T15:09:31.410Z,58.92
2024-01-19T15:11:59.805Z,59.27
2024-01-19T15:14:28.505Z,58.09
2024-01-19T15:16:57.134Z,59.09
2024-01-19T15:19:25.949Z,59.81
2024-01-19T15:21:56.768Z,59.39
2024-01-19T15:24:25.408Z,60.52
2024-01-19T15:26:54.155Z,60.23
2024-01-19T15:29:23.073Z,61.77
2024-01-19T15:31:51.468Z,62.23
2024-01-19T15:34:20.198Z,59.45
2024-01-19T15:36:48.586Z,61.19
2024-01-19T15:39:17.433Z,61.79
2024-01-19T15:41:45.974Z,61.88
2024-01-19T15:44:14.557Z,62.60
2024-01-19T15:46:43.278Z,61.81
2024-01-19T15:49:11.880Z,64.03
2024-01-19T15:51:40.650Z,64.95
2024-01-19T15:54:09.113Z,65.89
2024-01-19T15:56:38.718Z,66.24
2024-01-19T15:59:08.990Z,64.18
2024-01-19T16:01:41.625Z,67.52
2024-01-19T16:04:11.148Z,67.80
2024-01-19T16:06:40.294Z,68.01
2024-01-19T16:09:12.244Z,68.34
2024-01-19T16:11:40.872Z,67.30
2024-01-19T16:14:09.715Z,66.76
2024-01-19T16:16:38.407Z,68.04
2024-01-19T16:19:07.677Z,69.16
2024-01-19T16:21:36.370Z,69.73
2024-01-19T16:24:05.208Z,67.79
2024-01-19T16:26:34.279Z,69.16
2024-01-19T16:29:02.955Z,69.94
2024-01-19T16:31:31.460Z,69.68
2024-01-19T16:34:00.092Z,69.33
2024-01-19T16:36:28.910Z,69.78
2024-01-19T16:38:57.552Z,70.44
2024-01-19T16:41:26.234Z,70.03
2024-01-19T16:43:55.072Z,70.27
2024-01-19T16:46:24.964Z,71.43
2024-01-19T16:48:53.788Z,72.03
2024-01-19T16:51:24.515Z,70.15
2024-01-19T16:53:59.887Z,71.25
2024-01-19T16:56:33.249Z,70.01
2024-01-19T16:59:03.725Z,71.31
2024-01-19T17:01:33.079Z,69.67
2024-01-19T17:04:01.918Z,69.69
2024-01-19T17:06:30.397Z,69.37
2024-01-19T17:09:00.200Z,69.10
2024-01-19T17:11:29.545Z,69.92
2024-01-19T17:14:01.945Z,69.67
2024-01-19T17:16:31.153Z,69.36
2024-01-19T17:18:59.934Z,68.62
2024-01-19T17:21:29.106Z,70.85
2024-01-19T17:23:58.745Z,70.88
2024-01-19T17:26:29.200Z,70.87
2024-01-19T17:29:00.861Z,71.77
2024-01-19T17:31:29.660Z,72.13
2024-01-19T17:34:07.164Z,72.15
2024-01-19T17:36:39.512Z,72.26
2024-01-19T17:39:08.558Z,72.57
2024-01-19T17:41:43.928Z,72.93
2024-01-19T17:44:12.609Z,73.45
2024-01-19T17:46:41.291Z,73.16
2024-01-19T17:49:10.064Z,72.84
2024-01-19T17:51:38.878Z,73.22
2024-01-19T17:54:08.420Z,72.58
2024-01-19T17:56:38.941Z,73.29
2024-01-19T17:59:08.893Z,73.30
2024-01-19T18:01:37.775Z,73.83
2024-01-19T18:04:06.714Z,74.18
2024-01-19T18:06:37.881Z,73.70
2024-01-19T18:09:08.621Z,73.58
2024-01-19T18:11:37.904Z,73.18
2024-01-19T18:14:06.772Z,73.93
2024-01-19T18:16:36.414Z,73.84
2024-01-19T18:19:05.655Z,73.52
2024-01-19T18:21:36.226Z,73.26
2024-01-19T18:24:07.725Z,74.11
2024-01-19T18:26:36.661Z,73.07
2024-01-19T18:29:06.160Z,72.70
2024-01-19T18:31:34.933Z,70.45
2024-01-19T18:34:04.023Z,71.91
2024-01-19T18:36:33.102Z,71.65
2024-01-19T18:39:03.368Z,72.03
2024-01-19T18:41:32.881Z,71.88
2024-01-19T18:44:01.551Z,72.29
2024-01-19T18:46:30.141Z,72.51
2024-01-19T18:48:58.909Z,71.62
2024-01-19T18:51:27.544Z,71.84
2024-01-19T18:53:56.155Z,71.93
2024-01-19T18:56:24.896Z,72.06
2024-01-19T18:58:53.728Z,72.05
2024-01-19T19:01:24.432Z,72.79
2024-01-19T19:03:53.410Z,73.42
2024-01-19T19:06:23.567Z,73.84
2024-01-19T19:08:52.381Z,74.61
2024-01-19T19:11:22.404Z,75.14
2024-01-19T19:13:51.721Z,75.50
2024-01-19T19:16:30.233Z,75.96
2024-01-19T19:19:05.658Z,76.40
2024-01-19T19:21:34.370Z,76.40
2024-01-19T19:24:06.025Z,77.13
2024-01-19T19:26:34.788Z,77.63
2024-01-19T19:29:07.629Z,78.19
2024-01-19T19:31:36.634Z,78.74
2024-01-19T19:34:08.376Z,78.92
2024-01-19T19:36:37.266Z,78.97
2024-01-19T19:39:05.941Z,78.85
2024-01-19T19:41:38.287Z,78.84
2024-01-19T19:44:06.772Z,80.05
2024-01-19T19:46:35.358Z,79.48
2024-01-19T19:49:06.758Z,79.20
2024-01-19T19:51:38.665Z,80.09
2024-01-19T19:54:08.408Z,80.00
2024-01-19T19:56:39.841Z,80.21
2024-01-19T19:59:09.171Z,80.48
2024-01-19T20:01:37.916Z,80.93
2024-01-19T20:04:07.064Z,81.21
2024-01-19T20:06:35.583Z,81.20
2024-01-19T20:09:04.340Z,81.71
2024-01-19T20:11:35.282Z,82.42
2024-01-19T20:14:05.155Z,82.36
2024-01-19T20:16:34.035Z,82.88
2024-01-19T20:19:08.982Z,83.97
2024-01-19T20:21:39.056Z,83.84
2024-01-19T20:24:08.236Z,84.60
2024-01-19T20:26:37.307Z,85.25
2024-01-19T20:29:06.482Z,84.47
2024-01-19T20:31:35.113Z,83.51
2024-01-19T20:34:06.917Z,84.16
2024-01-19T20:36:35.830Z,84.25
2024-01-19T20:39:05.216Z,83.57
2024-01-19T20:41:37.196Z,84.93
2024-01-19T20:44:08.131Z,83.74
2024-01-19T20:46:36.780Z,83.70
2024-01-19T20:49:05.543Z,83.32
2024-01-19T20:51:36.782Z,83.96
2024-01-19T20:54:06.426Z,84.08
2024-01-19T20:56:35.085Z,84.05
2024-01-19T20:59:04.047Z,83.98
2024-01-19T21:01:32.845Z,84.17
2024-01-19T21:04:01.773Z,83.85
2024-01-19T21:06:30.788Z,83.83
2024-01-19T21:08:59.477Z,84.01
2024-01-19T21:11:28.582Z,84.59
2024-01-19T21:13:58.297Z,85.00
2024-01-19T21:16:27.883Z,84.47
2024-01-19T21:18:57.202Z,84.35
2024-01-19T21:21:26.255Z,84.33
2024-01-19T21:23:55.445Z,84.02
2024-01-19T21:26:25.612Z,83.68
2024-01-19T21:28:54.461Z,82.55
2024-01-19T21:31:23.240Z,82.62
2024-01-19T21:33:51.982Z,82.32
2024-01-19T21:36:20.879Z,81.63
2024-01-19T21:38:52.252Z,81.63
2024-01-19T21:41:21.845Z,81.16
2024-01-19T21:43:51.332Z,81.34
2024-01-19T21:46:20.308Z,81.94
2024-01-19T21:48:49.702Z,82.38
2024-01-19T21:51:18.823Z,81.46
2024-01-19T21:53:50.611Z,82.09
2024-01-19T21:56:20.136Z,82.29
2024-01-19T21:58:48.947Z,82.49
2024-01-19T22:01:21.189Z,83.37
2024-01-19T22:03:50.843Z,83.13
2024-01-19T22:06:20.017Z,82.56
2024-01-19T22:08:48.728Z,82.46
2024-01-19T22:11:17.716Z,82.13
2024-01-19T22:13:46.828Z,82.51
2024-01-19T22:16:15.817Z,82.92
2024-01-19T22:18:45.185Z,83.03
2024-01-19T22:21:13.523Z,83.37
2024-01-19T22:23:41.678Z,82.84
2024-01-19T22:26:10.158Z,83.74
2024-01-19T22:28:38.566Z,83.74
2024-01-19T22:31:07.838Z,84.00
2024-01-19T22:33:37.199Z,83.41
2024-01-19T22:36:14.998Z,84.09
2024-01-19T22:38:48.237Z,83.60
2024-01-19T22:41:16.532Z,83.48
2024-01-19T22:43:45.473Z,83.77
2024-01-19T22:46:13.659Z,83.42
2024-01-19T22:48:42.720Z,83.26
2024-01-19T22:51:13.818Z,83.36
2024-01-19T22:53:42.798Z,82.72
2024-01-19T22:56:11.749Z,82.75
2024-01-19T22:58:41.945Z,82.44
2024-01-19T23:01:11.657Z,83.33
2024-01-19T23:03:40.131Z,82.92
2024-01-19T23:06:08.753Z,81.95
2024-01-19T23:08:36.729Z,81.23
2024-01-19T23:11:05.111Z,80.75
2024-01-19T23:13:33.301Z,81.25
2024-01-19T23:16:02.392Z,80.24
2024-01-19T23:18:31.306Z,80.03
2024-01-19T23:20:59.558Z,79.66
2024-01-19T23:23:27.742Z,78.79
2024-01-19T23:25:56.074Z,78.18
2024-01-19T23:28:24.211Z,77.13
2024-01-19T23:30:53.123Z,77.57
2024-01-19T23:33:23.174Z,77.32
2024-01-19T23:35:51.274Z,76.78
2024-01-19T23:38:19.587Z,76.50
2024-01-19T23:40:47.775Z,75.60
2024-01-19T23:43:16.251Z,75.70
2024-01-19T23:45:44.525Z,74.58
2024-01-19T23:48:12.581Z,75.34
2024-01-19T23:50:40.981Z,74.87
2024-01-19T23:53:09.167Z,75.68
2024-01-19T23:55:37.403Z,75.76
2024-01-19T23:58:05.397Z,75.68
